createdAt,value
2023-01-03T00:03:45.964Z,48.70
2023-01-03T00:08:55.795Z,51.90
2023-01-03T00:14:03.576Z,46.40
2023-01-03T00:19:16.332Z,52.70
2023-01-03T00:24:23.793Z,59.20
2023-01-03T00:29:34.158Z,55.80
2023-01-03T00:34:45.559Z,53.50
2023-01-03T00:39:54.635Z,53.30
2023-01-03T00:45:02.221Z,57.60
2023-01-03T00:50:10.590Z,58.20
2023-01-03T00:55:19.804Z,57.90
2023-01-03T01:00:30.723Z,53.80
2023-01-03T01:05:39.131Z,49.60
2023-01-03T01:11:02.446Z,52.10
2023-01-03T01:16:13.108Z,50.80
2023-01-03T01:21:22.855Z,50.00
2023-01-03T01:26:31.258Z,50.80
2023-01-03T01:31:39.165Z,40.10
2023-01-03T01:36:47.732Z,38.50
2023-01-03T01:42:19.764Z,43.80
2023-01-03T01:47:37.576Z,51.70
2023-01-03T01:52:54.266Z,49.10
2023-01-03T02:03:33.703Z,51.70
2023-01-03T02:08:41.349Z,53.20
2023-01-03T02:13:57.589Z,61.10
2023-01-03T02:19:16.631Z,47.60
2023-01-03T02:24:56.471Z,39.90
2023-01-03T02:30:29.108Z,39.50
2023-01-03T02:35:46.509Z,40.80
2023-01-03T02:41:02.993Z,57.90
2023-01-03T02:46:20.201Z,40.80
2023-01-03T02:51:34.002Z,39.90
2023-01-03T02:56:46.175Z,46.30
2023-01-03T03:02:20.949Z,48.20
2023-01-03T03:07:33.329Z,59.00
2023-01-03T03:13:01.111Z,52.70
2023-01-03T03:18:14.271Z,50.70
2023-01-03T03:23:46.038Z,56.30
2023-01-03T03:29:03.418Z,56.10
2023-01-03T03:34:14.483Z,52.00
2023-01-03T03:39:46.082Z,49.00
2023-01-03T03:45:02.318Z,49.50
2023-01-03T03:50:20.426Z,57.50
2023-01-03T03:55:33.839Z,48.60
2023-01-03T04:00:44.722Z,39.60
2023-01-03T04:05:58.047Z,47.20
2023-01-03T04:11:07.335Z,46.60
2023-01-03T04:16:15.087Z,48.30
2023-01-03T04:21:23.592Z,42.60
2023-01-03T04:26:32.417Z,32.30
2023-01-03T04:31:41.290Z,24.30
2023-01-03T04:36:49.891Z,21.00
2023-01-03T04:42:01.620Z,31.60
2023-01-03T04:47:08.984Z,30.70
2023-01-03T04:52:17.441Z,25.00
2023-01-03T05:03:27.754Z,25.70
2023-01-03T05:08:32.772Z,27.40
2023-01-03T05:13:36.723Z,26.10
2023-01-03T05:18:41.652Z,22.60
2023-01-03T05:24:04.074Z,26.20
2023-01-03T05:29:09.048Z,28.80
2023-01-03T05:34:12.783Z,28.30
2023-01-03T05:39:17.125Z,28.10
2023-01-03T05:44:21.348Z,27.20
2023-01-03T05:49:25.099Z,28.20
2023-01-03T05:54:28.892Z,27.00
2023-01-03T05:59:32.631Z,21.50
2023-01-03T06:04:36.521Z,23.90
2023-01-03T06:09:40.446Z,26.70
2023-01-03T06:14:44.185Z,30.30
2023-01-03T06:19:47.888Z,28.50
2023-01-03T06:24:53.775Z,30.80
2023-01-03T06:29:57.564Z,23.20
2023-01-03T06:35:01.422Z,26.60
2023-01-03T06:40:07.141Z,33.60
2023-01-03T06:45:31.482Z,73.20
2023-01-03T06:50:53.474Z,62.00
2023-01-03T06:55:58.710Z,34.10
2023-01-03T07:04:14.701Z,35.70
2023-01-03T07:09:23.033Z,32.70
2023-01-03T07:14:33.916Z,32.60
2023-01-03T07:19:41.534Z,32.00
2023-01-03T07:24:51.148Z,31.70
2023-01-03T07:29:59.583Z,33.10
2023-01-03T07:35:09.346Z,30.30
2023-01-03T07:40:17.681Z,33.10
2023-01-03T07:45:26.564Z,35.50
2023-01-03T07:50:34.124Z,34.20
2023-01-03T07:55:41.890Z,23.40
2023-01-03T08:03:06.405Z,35.70
2023-01-03T08:08:17.792Z,38.50
2023-01-03T08:13:31.101Z,38.60
2023-01-03T08:18:39.417Z,29.50
2023-01-03T08:23:49.264Z,40.30
2023-01-03T08:28:59.676Z,39.10
2023-01-03T08:34:18.399Z,44.30
2023-01-03T08:39:33.705Z,41.00
2023-01-03T08:44:45.305Z,47.80
2023-01-03T08:49:53.130Z,46.00
2023-01-03T08:55:03.233Z,39.00
2023-01-03T09:00:15.269Z,36.20
2023-01-03T09:05:23.129Z,52.40
2023-01-03T09:10:32.783Z,47.70
2023-01-03T09:15:40.957Z,46.80
2023-01-03T09:20:52.808Z,57.60
2023-01-03T09:26:01.549Z,48.10
2023-01-03T09:31:11.513Z,50.10
2023-01-03T09:36:19.326Z,48.90
2023-01-03T09:41:32.182Z,43.60
2023-01-03T09:46:40.386Z,52.10
2023-01-03T09:52:07.837Z,47.90
2023-01-03T09:57:39.946Z,35.50
2023-01-03T10:03:19.975Z,29.60
2023-01-03T10:08:48.260Z,18.40
2023-01-03T10:14:07.247Z,11.70
2023-01-03T10:19:47.364Z,17.30
2023-01-03T10:25:02.464Z,15.00
2023-01-03T10:30:20.202Z,20.70
2023-01-03T10:35:32.375Z,20.30
2023-01-03T10:40:45.537Z,18.80
2023-01-03T10:46:01.525Z,22.10
2023-01-03T10:51:24.941Z,19.80
2023-01-03T10:56:37.018Z,18.30
2023-01-03T11:02:00.838Z,19.20
2023-01-03T11:07:17.231Z,21.20
2023-01-03T11:12:31.121Z,16.90
2023-01-03T11:17:39.894Z,13.00
2023-01-03T11:22:56.679Z,14.80
2023-01-03T11:28:36.160Z,13.10
2023-01-03T11:34:03.652Z,10.60
2023-01-03T11:39:33.719Z,11.90
2023-01-03T11:45:08.756Z,9.00
2023-01-03T11:50:38.864Z,6.90
2023-01-03T11:56:03.970Z,11.00
2023-01-03T12:01:26.027Z,8.60
2023-01-03T12:06:40.250Z,9.40
2023-01-03T12:12:09.093Z,9.20
2023-01-03T12:17:22.406Z,12.80
2023-01-03T12:22:40.381Z,12.00
2023-01-03T12:27:57.205Z,18.80
2023-01-03T12:33:15.065Z,25.70
2023-01-03T12:38:32.217Z,28.30
2023-01-03T12:43:47.447Z,30.50
2023-01-03T12:49:01.791Z,31.00
2023-01-03T12:54:25.875Z,30.40
2023-01-03T13:00:03.275Z,28.70
2023-01-03T13:05:20.451Z,29.80
2023-01-03T13:10:33.936Z,26.70
2023-01-03T13:15:41.889Z,28.40
2023-01-03T13:20:51.567Z,32.60
2023-01-03T13:36:02.323Z,31.20
2023-01-03T13:41:34.203Z,29.10
2023-01-03T13:46:43.841Z,32.90
2023-01-03T13:51:55.016Z,25.80
2023-01-03T13:57:05.468Z,26.00
2023-01-03T14:03:03.935Z,30.40
2023-01-03T14:08:35.318Z,23.20
2023-01-03T14:13:46.299Z,24.90
2023-01-03T14:19:00.755Z,27.60
2023-01-03T14:24:15.063Z,22.00
2023-01-03T14:29:27.668Z,29.60
2023-01-03T14:42:57.649Z,27.00
2023-01-03T14:48:07.353Z,27.90
2023-01-03T14:53:16.145Z,25.30
2023-01-03T14:58:34.751Z,25.90
2023-01-03T15:03:48.848Z,26.10
2023-01-03T15:08:59.356Z,34.00
2023-01-03T15:14:08.565Z,30.80
2023-01-03T15:19:21.320Z,33.40
2023-01-03T15:24:35.142Z,31.70
2023-01-03T15:29:48.466Z,31.20
2023-01-03T15:34:57.777Z,39.10
2023-01-03T15:40:06.914Z,33.20
2023-01-03T15:45:21.618Z,34.80
2023-01-03T15:50:40.001Z,25.70
2023-01-03T15:55:49.608Z,19.50
2023-01-03T16:00:58.348Z,22.00
2023-01-03T16:06:06.779Z,21.90
2023-01-03T16:11:20.425Z,16.80
2023-01-03T16:16:32.489Z,16.60
2023-01-03T16:21:40.124Z,14.30
2023-01-03T16:26:48.410Z,15.60
2023-01-03T16:31:59.971Z,14.50
2023-01-03T16:37:10.202Z,16.40
2023-01-03T16:42:19.204Z,13.90
2023-01-03T16:47:35.989Z,12.40
2023-01-03T16:52:48.025Z,18.20
2023-01-03T16:57:57.457Z,17.00
2023-01-03T17:03:05.439Z,14.10
2023-01-03T17:08:20.959Z,13.10
2023-01-03T17:13:34.827Z,13.70
2023-01-03T17:18:43.758Z,14.20
2023-01-03T17:23:52.296Z,17.10
2023-01-03T17:29:03.969Z,19.70
2023-01-03T17:34:29.616Z,18.30
2023-01-03T17:39:38.175Z,14.10
2023-01-03T17:45:07.035Z,18.30
2023-01-03T17:50:15.291Z,21.30
2023-01-03T17:55:24.679Z,22.40
2023-01-03T18:00:33.707Z,21.60
2023-01-03T18:05:41.914Z,22.40
2023-01-03T18:10:55.049Z,21.20
2023-01-03T18:16:05.130Z,22.80
2023-01-03T18:21:21.779Z,19.20
2023-01-03T18:26:34.587Z,21.90
2023-01-03T18:31:42.402Z,22.50
2023-01-03T18:36:52.582Z,28.20
2023-01-03T18:42:15.503Z,23.60
2023-01-03T18:47:22.968Z,22.80
2023-01-03T18:52:41.100Z,28.10
2023-01-03T19:02:56.581Z,22.50
2023-01-03T19:08:08.527Z,29.90
2023-01-03T19:13:27.449Z,23.10
2023-01-03T19:18:35.146Z,36.20
2023-01-03T19:23:46.125Z,33.30
2023-01-03T19:28:59.049Z,36.90
2023-01-03T19:34:07.557Z,42.70
2023-01-03T19:39:17.725Z,37.80
2023-01-03T19:44:30.267Z,43.20
2023-01-03T19:49:39.151Z,42.00
2023-01-03T19:54:47.534Z,43.60
2023-01-03T20:00:00.733Z,42.80
2023-01-03T20:05:17.186Z,44.20
2023-01-03T20:10:27.903Z,49.80
2023-01-03T20:15:39.514Z,44.70
2023-01-03T20:20:47.863Z,44.20
2023-01-03T20:25:58.593Z,37.50
2023-01-03T20:31:08.404Z,34.20
2023-01-03T20:36:23.312Z,42.40
2023-01-03T20:41:37.419Z,43.60
2023-01-03T20:46:45.954Z,47.30
2023-01-03T20:51:55.164Z,43.90
2023-01-03T20:57:03.921Z,42.70
2023-01-03T21:02:13.353Z,46.00
2023-01-03T21:07:51.659Z,50.80
2023-01-03T21:18:12.855Z,44.70
2023-01-03T21:23:23.429Z,45.90
2023-01-03T21:28:32.481Z,50.60
2023-01-03T21:33:41.420Z,58.70
2023-01-03T21:38:49.440Z,51.70
2023-01-03T21:44:01.796Z,62.30
2023-01-03T21:49:09.782Z,62.00
2023-01-03T21:54:18.839Z,57.10
2023-01-03T21:59:27.993Z,58.60
2023-01-03T22:04:36.090Z,64.20
2023-01-03T22:10:11.102Z,62.50
2023-01-03T22:15:22.460Z,58.10
2023-01-03T22:20:36.356Z,60.10
2023-01-03T22:25:46.451Z,47.20
2023-01-03T22:30:56.198Z,72.30
2023-01-03T22:36:04.921Z,79.10
2023-01-03T22:41:15.035Z,85.80
2023-01-03T22:46:23.740Z,99.30
2023-01-03T22:51:33.213Z,83.70
2023-01-03T22:56:41.098Z,85.30
2023-01-03T23:01:51.270Z,98.50
2023-01-03T23:07:00.356Z,94.80
2023-01-03T23:12:26.917Z,90.60
2023-01-03T23:17:52.169Z,92.40
2023-01-03T23:23:03.339Z,87.90
2023-01-03T23:28:12.034Z,84.30
2023-01-03T23:33:19.614Z,94.00
2023-01-03T23:38:29.622Z,92.00
2023-01-03T23:43:37.806Z,96.50
2023-01-03T23:48:46.031Z,93.40
2023-01-03T23:53:53.660Z,76.20
2023-01-03T23:59:04.239Z,90.50
